EXS1360 LFLB-EGBB
Flight info
| Callsign | EXS1360 |
|---|---|
| Flight time | N/A |
| Altitude | 36000 |
| Route | BUSIL DCT AMORO DCT MOMIL DCT BAGBI DCT SIZZA DCT LAULY DCT BRY DCT CLM DCT KOPOR DCT ABNUR DCT DIMAL DCT ALESO T420 HEMEL |
| Aircraft | A321/M-SDE3FGHIRWY/LB1 |
Departure
| Time | 2026-05-04 21:20 |
|---|---|
| Airport | Chambéry Aix les Bains airport (LFLB) |
Arrival
| Time | N/A |
|---|---|
| Airport | Birmingham Airport (EGBB) |
| Time | Latitude | Longitude | Altitude | Speed | Heading |
|---|---|---|---|---|---|
| 2026-05-04 20:47 | 45.63899 | 5.88334 | 778 ft | 0 kts | 90° |
| 2026-05-04 21:12 | 45.63900 | 5.88313 | 778 ft | 4 kts | 117° |
| 2026-05-04 21:12 | 45.63918 | 5.88293 | 778 ft | 4 kts | 170° |
| 2026-05-04 21:13 | 45.63944 | 5.88289 | 778 ft | 2 kts | 177° |
| 2026-05-04 21:13 | 45.63950 | 5.88289 | 778 ft | 0 kts | 177° |
| 2026-05-04 21:15 | 45.63949 | 5.88289 | 778 ft | 0 kts | 177° |
| 2026-05-04 21:15 | 45.63932 | 5.88290 | 778 ft | 4 kts | 177° |
| 2026-05-04 21:16 | 45.63874 | 5.88292 | 778 ft | 12 kts | 186° |
| 2026-05-04 21:16 | 45.63781 | 5.88236 | 779 ft | 16 kts | 195° |
| 2026-05-04 21:16 | 45.63676 | 5.88237 | 779 ft | 14 kts | 176° |
| 2026-05-04 21:16 | 45.63555 | 5.88246 | 780 ft | 12 kts | 177° |
| 2026-05-04 21:17 | 45.63501 | 5.88250 | 781 ft | 11 kts | 177° |
| 2026-05-04 21:17 | 45.63425 | 5.88256 | 781 ft | 12 kts | 176° |
| 2026-05-04 21:17 | 45.63341 | 5.88263 | 782 ft | 11 kts | 176° |
| 2026-05-04 21:17 | 45.63267 | 5.88270 | 782 ft | 11 kts | 176° |
| 2026-05-04 21:18 | 45.63189 | 5.88265 | 783 ft | 10 kts | 201° |
| 2026-05-04 21:18 | 45.63153 | 5.88190 | 784 ft | 11 kts | 259° |
| 2026-05-04 21:18 | 45.63147 | 5.88099 | 785 ft | 5 kts | 268° |
| 2026-05-04 21:18 | 45.63170 | 5.88081 | 785 ft | 4 kts | 354° |
| 2026-05-04 21:19 | 45.63173 | 5.88080 | 785 ft | 0 kts | 355° |
| 2026-05-04 21:19 | 45.63286 | 5.88067 | 783 ft | 54 kts | 355° |
| 2026-05-04 21:19 | 45.63930 | 5.88011 | 778 ft | 127 kts | 356° |
| 2026-05-04 21:20 | 45.65009 | 5.87924 | 809 ft | 178 kts | 358° |
| 2026-05-04 21:20 | 45.66231 | 5.87867 | 1609 ft | 172 kts | 358° |
| 2026-05-04 21:20 | 45.67444 | 5.87783 | 2254 ft | 176 kts | 356° |
| 2026-05-04 21:20 | 45.68684 | 5.87672 | 2627 ft | 185 kts | 356° |
| 2026-05-04 21:21 | 45.70027 | 5.87541 | 2774 ft | 205 kts | 356° |
| 2026-05-04 21:21 | 45.71480 | 5.87410 | 3143 ft | 211 kts | 356° |
| 2026-05-04 21:21 | 45.72955 | 5.87283 | 3612 ft | 214 kts | 357° |
| 2026-05-04 21:21 | 45.74448 | 5.87067 | 4145 ft | 217 kts | 342° |
| 2026-05-04 21:22 | 45.75710 | 5.85818 | 4436 ft | 234 kts | 302° |
| 2026-05-04 21:22 | 45.76206 | 5.83528 | 4664 ft | 255 kts | 267° |
| 2026-05-04 21:22 | 45.75690 | 5.81073 | 5051 ft | 268 kts | 237° |
| 2026-05-04 21:22 | 45.74513 | 5.78987 | 5731 ft | 271 kts | 224° |
| 2026-05-04 21:23 | 45.73128 | 5.77139 | 6467 ft | 274 kts | 221° |
| 2026-05-04 21:23 | 45.71690 | 5.75322 | 7190 ft | 277 kts | 221° |
| 2026-05-04 21:23 | 45.70253 | 5.73454 | 7894 ft | 281 kts | 223° |
| 2026-05-04 21:23 | 45.68837 | 5.71516 | 8583 ft | 284 kts | 224° |
| 2026-05-04 21:24 | 45.67626 | 5.69278 | 9227 ft | 288 kts | 242° |
| 2026-05-04 21:24 | 45.66969 | 5.66557 | 9870 ft | 293 kts | 261° |
| 2026-05-04 21:24 | 45.66951 | 5.63642 | 10526 ft | 296 kts | 278° |
| 2026-05-04 21:24 | 45.67439 | 5.60683 | 10742 ft | 318 kts | 288° |
| 2026-05-04 21:25 | 45.68356 | 5.57697 | 10885 ft | 339 kts | 299° |
| 2026-05-04 21:25 | 45.69663 | 5.54813 | 11217 ft | 351 kts | 303° |
| 2026-05-04 21:25 | 45.71034 | 5.51890 | 11779 ft | 356 kts | 303° |
| 2026-05-04 21:25 | 45.72412 | 5.48919 | 12386 ft | 360 kts | 303° |
| 2026-05-04 21:26 | 45.73796 | 5.45913 | 13004 ft | 363 kts | 303° |
| 2026-05-04 21:26 | 45.75186 | 5.42889 | 13609 ft | 365 kts | 302° |
| 2026-05-04 21:26 | 45.76618 | 5.39863 | 14193 ft | 369 kts | 307° |
| 2026-05-04 21:26 | 45.78372 | 5.37155 | 14756 ft | 373 kts | 318° |
| 2026-05-04 21:27 | 45.80437 | 5.34875 | 15328 ft | 377 kts | 323° |
| 2026-05-04 21:27 | 45.82563 | 5.32637 | 15867 ft | 380 kts | 323° |
| 2026-05-04 21:27 | 45.84699 | 5.30379 | 16402 ft | 383 kts | 322° |
| 2026-05-04 21:27 | 45.86848 | 5.28098 | 16908 ft | 386 kts | 322° |
| 2026-05-04 21:28 | 45.89021 | 5.25790 | 17429 ft | 389 kts | 322° |
| 2026-05-04 21:28 | 45.91206 | 5.23470 | 17908 ft | 392 kts | 322° |
| 2026-05-04 21:28 | 45.93406 | 5.21128 | 18391 ft | 395 kts | 322° |
| 2026-05-04 21:28 | 45.95624 | 5.18760 | 18861 ft | 398 kts | 322° |
| 2026-05-04 21:29 | 45.97854 | 5.16375 | 19310 ft | 401 kts | 322° |
| 2026-05-04 21:29 | 46.00105 | 5.13972 | 19754 ft | 404 kts | 322° |
| 2026-05-04 21:29 | 46.02374 | 5.11552 | 20205 ft | 407 kts | 322° |
| 2026-05-04 21:29 | 46.04613 | 5.09054 | 20633 ft | 408 kts | 316° |
| 2026-05-04 21:30 | 46.06626 | 5.06173 | 21049 ft | 409 kts | 312° |
| 2026-05-04 21:30 | 46.08614 | 5.03216 | 21466 ft | 412 kts | 312° |
| 2026-05-04 21:30 | 46.10589 | 5.00279 | 21869 ft | 415 kts | 312° |
| 2026-05-04 21:30 | 46.12631 | 4.97243 | 22272 ft | 417 kts | 312° |
| 2026-05-04 21:31 | 46.16664 | 4.91230 | 23030 ft | 422 kts | 312° |
| 2026-05-04 21:31 | 46.18739 | 4.88136 | 23400 ft | 425 kts | 312° |
| 2026-05-04 21:31 | 46.20769 | 4.85105 | 23760 ft | 427 kts | 312° |
| 2026-05-04 21:32 | 46.22836 | 4.82013 | 24117 ft | 429 kts | 312° |
| 2026-05-04 21:32 | 46.24916 | 4.78892 | 24476 ft | 432 kts | 312° |
| 2026-05-04 21:32 | 46.27001 | 4.75761 | 24833 ft | 434 kts | 312° |
| 2026-05-04 21:32 | 46.29173 | 4.72710 | 25180 ft | 437 kts | 318° |
| 2026-05-04 21:33 | 46.31647 | 4.70141 | 25516 ft | 441 kts | 327° |
| 2026-05-04 21:33 | 46.34272 | 4.67817 | 25846 ft | 443 kts | 327° |
| 2026-05-04 21:33 | 46.36904 | 4.65487 | 26185 ft | 445 kts | 327° |
| 2026-05-04 21:33 | 46.39545 | 4.63145 | 26503 ft | 446 kts | 327° |
| 2026-05-04 21:34 | 46.42202 | 4.60786 | 26830 ft | 448 kts | 327° |
| 2026-05-04 21:34 | 46.44870 | 4.58433 | 27140 ft | 451 kts | 329° |
| 2026-05-04 21:34 | 46.47724 | 4.56510 | 27425 ft | 455 kts | 339° |
| 2026-05-04 21:34 | 46.50781 | 4.55280 | 27714 ft | 458 kts | 348° |
| 2026-05-04 21:35 | 46.53960 | 4.54784 | 27998 ft | 461 kts | 358° |
| 2026-05-04 21:35 | 46.57177 | 4.54945 | 28255 ft | 464 kts | 3° |
| 2026-05-04 21:35 | 46.60399 | 4.55383 | 28514 ft | 466 kts | 6° |
| 2026-05-04 21:35 | 46.63621 | 4.56002 | 28776 ft | 468 kts | 7° |
| 2026-05-04 21:36 | 46.66833 | 4.56709 | 29018 ft | 470 kts | 8° |
| 2026-05-04 21:36 | 46.70069 | 4.57440 | 29262 ft | 472 kts | 7° |
| 2026-05-04 21:36 | 46.73321 | 4.58139 | 29506 ft | 473 kts | 7° |
| 2026-05-04 21:36 | 46.76589 | 4.58742 | 29743 ft | 474 kts | 2° |
| 2026-05-04 21:37 | 46.79890 | 4.58716 | 29977 ft | 474 kts | 353° |
| 2026-05-04 21:37 | 46.83131 | 4.57948 | 30268 ft | 471 kts | 343° |
| 2026-05-04 21:37 | 46.86238 | 4.56508 | 30598 ft | 468 kts | 335° |
| 2026-05-04 21:37 | 46.89213 | 4.54605 | 30918 ft | 466 kts | 333° |
| 2026-05-04 21:38 | 46.92173 | 4.52677 | 31259 ft | 465 kts | 333° |
| 2026-05-04 21:38 | 46.95129 | 4.50753 | 31600 ft | 465 kts | 333° |
| 2026-05-04 21:38 | 46.98082 | 4.48834 | 31928 ft | 464 kts | 333° |
| 2026-05-04 21:38 | 47.01028 | 4.46920 | 32246 ft | 463 kts | 333° |
| 2026-05-04 21:39 | 47.03968 | 4.45007 | 32561 ft | 463 kts | 333° |
| 2026-05-04 21:39 | 47.06909 | 4.43086 | 32871 ft | 462 kts | 333° |
| 2026-05-04 21:39 | 47.09840 | 4.41167 | 33197 ft | 461 kts | 333° |
| 2026-05-04 21:39 | 47.12768 | 4.39246 | 33508 ft | 460 kts | 333° |
| 2026-05-04 21:40 | 47.15686 | 4.37326 | 33819 ft | 460 kts | 333° |
| 2026-05-04 21:40 | 47.18602 | 4.35405 | 34114 ft | 459 kts | 333° |
| 2026-05-04 21:40 | 47.21512 | 4.33486 | 34397 ft | 458 kts | 333° |
| 2026-05-04 21:40 | 47.24421 | 4.31566 | 34662 ft | 457 kts | 333° |
| 2026-05-04 21:41 | 47.27322 | 4.29649 | 34907 ft | 458 kts | 333° |
| 2026-05-04 21:41 | 47.30230 | 4.27731 | 35149 ft | 457 kts | 333° |
| 2026-05-04 21:41 | 47.33094 | 4.25842 | 35379 ft | 457 kts | 333° |
| 2026-05-04 21:41 | 47.35997 | 4.23922 | 35601 ft | 457 kts | 333° |
| 2026-05-04 21:42 | 47.38892 | 4.22001 | 35819 ft | 457 kts | 333° |
| 2026-05-04 21:42 | 47.41790 | 4.20069 | 35940 ft | 457 kts | 333° |
| 2026-05-04 21:42 | 47.44685 | 4.18137 | 35963 ft | 456 kts | 333° |
| 2026-05-04 21:43 | 47.50463 | 4.14281 | 35961 ft | 455 kts | 333° |
| 2026-05-04 21:43 | 47.56237 | 4.10421 | 35962 ft | 456 kts | 333° |
| 2026-05-04 21:44 | 47.62019 | 4.06560 | 35950 ft | 455 kts | 333° |
| 2026-05-04 21:44 | 47.67788 | 4.02690 | 35952 ft | 455 kts | 333° |
| 2026-05-04 21:45 | 47.73569 | 3.98818 | 35951 ft | 455 kts | 333° |
| 2026-05-04 21:45 | 47.79342 | 3.94939 | 35949 ft | 455 kts | 333° |
| 2026-05-04 21:46 | 47.85114 | 3.91041 | 35947 ft | 456 kts | 333° |
| 2026-05-04 21:46 | 47.90884 | 3.87134 | 35946 ft | 455 kts | 333° |
| 2026-05-04 21:47 | 47.96655 | 3.83229 | 35944 ft | 455 kts | 333° |
| 2026-05-04 21:47 | 48.02419 | 3.79306 | 35941 ft | 456 kts | 333° |
| 2026-05-04 21:48 | 48.08184 | 3.75373 | 35941 ft | 456 kts | 333° |
| 2026-05-04 21:48 | 48.13901 | 3.71290 | 35940 ft | 453 kts | 326° |
| 2026-05-04 21:49 | 48.18718 | 3.65405 | 35937 ft | 445 kts | 309° |
| 2026-05-04 21:49 | 48.22913 | 3.58577 | 35934 ft | 445 kts | 309° |
| 2026-05-04 21:50 | 48.27113 | 3.51740 | 35936 ft | 446 kts | 309° |
| 2026-05-04 21:50 | 48.31316 | 3.44883 | 35935 ft | 446 kts | 309° |
| 2026-05-04 21:51 | 48.35490 | 3.38058 | 35938 ft | 446 kts | 309° |
| 2026-05-04 21:51 | 48.39034 | 3.32405 | 35942 ft | 448 kts | 315° |
| 2026-05-04 21:52 | 48.39875 | 3.31347 | 35915 ft | 449 kts | 327° |
| 2026-05-04 21:52 | 48.42724 | 3.29385 | 35660 ft | 451 kts | 333° |
| 2026-05-04 21:52 | 48.45545 | 3.27306 | 35658 ft | 452 kts | 329° |
| 2026-05-04 21:52 | 48.48321 | 3.25093 | 35801 ft | 452 kts | 329° |
| 2026-05-04 21:53 | 48.51128 | 3.22919 | 35928 ft | 454 kts | 331° |
| 2026-05-04 21:53 | 48.56881 | 3.18930 | 35952 ft | 456 kts | 335° |
| 2026-05-04 21:54 | 48.62752 | 3.15284 | 35952 ft | 456 kts | 335° |
| 2026-05-04 21:54 | 48.68629 | 3.11640 | 35954 ft | 456 kts | 335° |
| 2026-05-04 21:55 | 48.74470 | 3.07897 | 35952 ft | 456 kts | 334° |
| 2026-05-04 21:55 | 48.80303 | 3.04099 | 35953 ft | 456 kts | 334° |
| 2026-05-04 21:56 | 48.86033 | 3.00034 | 35951 ft | 453 kts | 328° |
| 2026-05-04 21:56 | 48.91505 | 2.95254 | 35953 ft | 454 kts | 328° |
| 2026-05-04 21:57 | 48.96978 | 2.90472 | 35953 ft | 454 kts | 328° |
| 2026-05-04 21:57 | 49.02415 | 2.85714 | 35952 ft | 454 kts | 328° |
| 2026-05-04 21:58 | 49.07881 | 2.80900 | 35952 ft | 453 kts | 328° |
| 2026-05-04 21:58 | 49.13341 | 2.76076 | 35953 ft | 454 kts | 328° |
| 2026-05-04 21:59 | 49.18806 | 2.71237 | 35956 ft | 454 kts | 328° |
| 2026-05-04 21:59 | 49.24255 | 2.66415 | 35960 ft | 454 kts | 328° |
| 2026-05-04 22:00 | 49.29715 | 2.61568 | 35959 ft | 453 kts | 328° |
| 2026-05-04 22:00 | 49.35137 | 2.56736 | 35964 ft | 454 kts | 328° |
| 2026-05-04 22:01 | 49.40588 | 2.51865 | 35967 ft | 453 kts | 328° |
| 2026-05-04 22:01 | 49.46036 | 2.46992 | 35966 ft | 453 kts | 328° |
| 2026-05-04 22:02 | 49.50596 | 2.42900 | 35966 ft | 453 kts | 328° |
| 2026-05-04 22:02 | 49.56067 | 2.38099 | 35969 ft | 453 kts | 329° |
| 2026-05-04 22:03 | 49.61606 | 2.33465 | 35967 ft | 453 kts | 330° |
| 2026-05-04 22:03 | 49.67142 | 2.28826 | 35969 ft | 453 kts | 329° |
| 2026-05-04 22:04 | 49.72666 | 2.24145 | 35971 ft | 453 kts | 329° |
| 2026-05-04 22:04 | 49.78179 | 2.19459 | 35972 ft | 452 kts | 329° |
| 2026-05-04 22:05 | 49.83691 | 2.14745 | 35971 ft | 452 kts | 329° |
| 2026-05-04 22:05 | 49.89190 | 2.10025 | 35970 ft | 452 kts | 329° |
| 2026-05-04 22:06 | 49.94687 | 2.05299 | 35970 ft | 452 kts | 329° |
| 2026-05-04 22:06 | 50.00188 | 2.00565 | 35975 ft | 452 kts | 329° |
| 2026-05-04 22:07 | 50.05656 | 1.95842 | 35988 ft | 453 kts | 329° |
| 2026-05-04 22:07 | 50.11156 | 1.91079 | 35992 ft | 452 kts | 329° |
| 2026-05-04 22:08 | 50.16623 | 1.86111 | 35992 ft | 450 kts | 322° |
| 2026-05-04 22:08 | 50.21228 | 1.79667 | 35991 ft | 448 kts | 314° |
| 2026-05-04 22:09 | 50.25681 | 1.72872 | 35989 ft | 448 kts | 314° |
| 2026-05-04 22:09 | 50.30138 | 1.66072 | 35994 ft | 448 kts | 314° |
| 2026-05-04 22:10 | 50.34596 | 1.59252 | 35997 ft | 448 kts | 314° |
| 2026-05-04 22:10 | 50.39040 | 1.52419 | 35997 ft | 448 kts | 314° |
| 2026-05-04 22:11 | 50.43190 | 1.46022 | 35994 ft | 448 kts | 314° |
| 2026-05-04 22:11 | 50.47623 | 1.39179 | 35993 ft | 448 kts | 314° |
| 2026-05-04 22:12 | 50.51487 | 1.33080 | 35991 ft | 447 kts | 312° |
| 2026-05-04 22:12 | 50.55377 | 1.26475 | 35996 ft | 447 kts | 310° |
| 2026-05-04 22:13 | 50.59360 | 1.19602 | 36006 ft | 447 kts | 312° |
| 2026-05-04 22:13 | 50.63470 | 1.13002 | 36007 ft | 448 kts | 314° |
| 2026-05-04 22:14 | 50.67764 | 1.06363 | 36006 ft | 448 kts | 314° |
| 2026-05-04 22:14 | 50.71996 | 0.99769 | 36013 ft | 448 kts | 314° |
| 2026-05-04 22:15 | 50.76344 | 0.92867 | 36015 ft | 446 kts | 313° |
| 2026-05-04 22:15 | 50.80703 | 0.85878 | 36016 ft | 447 kts | 313° |
| 2026-05-04 22:16 | 50.85065 | 0.78875 | 36017 ft | 447 kts | 313° |
| 2026-05-04 22:16 | 50.89436 | 0.71873 | 36019 ft | 447 kts | 313° |
| 2026-05-04 22:17 | 50.93803 | 0.64851 | 36019 ft | 447 kts | 313° |
| 2026-05-04 22:17 | 50.98161 | 0.57813 | 36022 ft | 447 kts | 313° |
| 2026-05-04 22:18 | 51.02518 | 0.50774 | 36026 ft | 447 kts | 313° |
| 2026-05-04 22:18 | 51.06865 | 0.43709 | 36023 ft | 447 kts | 313° |
| 2026-05-04 22:19 | 51.11314 | 0.36753 | 36022 ft | 449 kts | 315° |
| 2026-05-04 22:19 | 51.15852 | 0.29932 | 36028 ft | 449 kts | 315° |
| 2026-05-04 22:20 | 51.20297 | 0.23226 | 35579 ft | 447 kts | 315° |